sensor_id;sensor_type;location;lat;lon;timestamp;pressure;altitude;pressure_sealevel;temperature;humidity
60974;BME280;46846;51.528;5.076;2023-02-14T00:01:14;102923.25;;;3.76;80.53
60974;BME280;46846;51.528;5.076;2023-02-14T00:03:39;102914.50;;;3.77;80.04
60974;BME280;46846;51.528;5.076;2023-02-14T00:06:07;102915.34;;;3.75;80.17
60974;BME280;46846;51.528;5.076;2023-02-14T00:08:33;102916.16;;;3.74;80.65
60974;BME280;46846;51.528;5.076;2023-02-14T00:10:58;102913.44;;;3.71;80.96
60974;BME280;46846;51.528;5.076;2023-02-14T00:13:23;102912.66;;;3.73;80.41
60974;BME280;46846;51.528;5.076;2023-02-14T00:15:49;102919.56;;;3.69;80.18
60974;BME280;46846;51.528;5.076;2023-02-14T00:18:14;102916.94;;;3.69;80.48
60974;BME280;46846;51.528;5.076;2023-02-14T00:20:39;102917.69;;;3.65;80.33
60974;BME280;46846;51.528;5.076;2023-02-14T00:23:05;102918.53;;;3.64;80.51
60974;BME280;46846;51.528;5.076;2023-02-14T00:25:33;102919.34;;;3.62;80.28
60974;BME280;46846;51.528;5.076;2023-02-14T00:27:58;102915.84;;;3.63;80.63
60974;BME280;46846;51.528;5.076;2023-02-14T00:30:24;102909.66;;;3.61;80.18
60974;BME280;46846;51.528;5.076;2023-02-14T00:32:49;102907.03;;;3.61;80.34
60974;BME280;46846;51.528;5.076;2023-02-14T00:35:14;102907.03;;;3.61;79.94
60974;BME280;46846;51.528;5.076;2023-02-14T00:37:40;102900.84;;;3.59;80.52
60974;BME280;46846;51.528;5.076;2023-02-14T00:40:06;102903.47;;;3.59;80.46
60974;BME280;46846;51.528;5.076;2023-02-14T00:42:31;102908.63;;;3.55;80.58
60974;BME280;46846;51.528;5.076;2023-02-14T00:44:57;102898.03;;;3.52;80.07
60974;BME280;46846;51.528;5.076;2023-02-14T00:47:22;102902.38;;;3.50;80.16
60974;BME280;46846;51.528;5.076;2023-02-14T00:49:48;102908.44;;;3.48;80.13
60974;BME280;46846;51.528;5.076;2023-02-14T00:52:13;102890.94;;;3.50;79.92
60974;BME280;46846;51.528;5.076;2023-02-14T00:54:38;102889.09;;;3.47;80.38
60974;BME280;46846;51.528;5.076;2023-02-14T00:57:04;102886.44;;;3.46;80.15
60974;BME280;46846;51.528;5.076;2023-02-14T00:59:29;102891.59;;;3.42;80.31
60974;BME280;46846;51.528;5.076;2023-02-14T01:01:54;102898.56;;;3.40;80.14
60974;BME280;46846;51.528;5.076;2023-02-14T01:04:20;102893.31;;;3.40;79.95
60974;BME280;46846;51.528;5.076;2023-02-14T01:06:45;102890.59;;;3.37;79.92
60974;BME280;46846;51.528;5.076;2023-02-14T01:09:10;102895.00;;;3.38;80.37
60974;BME280;46846;51.528;5.076;2023-02-14T01:11:36;102890.59;;;3.37;80.67
60974;BME280;46846;51.528;5.076;2023-02-14T01:14:01;102886.16;;;3.36;80.08
60974;BME280;46846;51.528;5.076;2023-02-14T01:16:28;102893.13;;;3.34;80.06
60974;BME280;46846;51.528;5.076;2023-02-14T01:18:54;102888.66;;;3.32;80.46
60974;BME280;46846;51.528;5.076;2023-02-14T01:21:26;102888.66;;;3.30;80.07
60974;BME280;46846;51.528;5.076;2023-02-14T01:23:54;102886.88;;;3.31;80.12
60974;BME280;46846;51.528;5.076;2023-02-14T01:26:22;102889.56;;;3.32;80.38
60974;BME280;46846;51.528;5.076;2023-02-14T01:28:48;102889.47;;;3.29;80.03
60974;BME280;46846;51.528;5.076;2023-02-14T01:31:15;102898.22;;;3.28;80.22
60974;BME280;46846;51.528;5.076;2023-02-14T01:33:42;102895.56;;;3.28;80.10
60974;BME280;46846;51.528;5.076;2023-02-14T01:36:20;102899.00;;;3.25;80.00
60974;BME280;46846;51.528;5.076;2023-02-14T01:38:46;102906.06;;;3.26;79.66
60974;BME280;46846;51.528;5.076;2023-02-14T01:41:11;102896.44;;;3.27;79.64
60974;BME280;46846;51.528;5.076;2023-02-14T01:46:16;102902.34;;;3.20;80.21
60974;BME280;46846;51.528;5.076;2023-02-14T01:48:41;102905.75;;;3.16;80.11
60974;BME280;46846;51.528;5.076;2023-02-14T01:51:06;102905.75;;;3.16;80.03
60974;BME280;46846;51.528;5.076;2023-02-14T01:53:32;102903.00;;;3.12;80.19
60974;BME280;46846;51.528;5.076;2023-02-14T01:56:03;102897.75;;;3.12;80.23
60974;BME280;46846;51.528;5.076;2023-02-14T01:58:31;102899.50;;;3.12;79.71
60974;BME280;46846;51.528;5.076;2023-02-14T02:01:02;102908.25;;;3.11;79.56
60974;BME280;46846;51.528;5.076;2023-02-14T02:06:18;102900.31;;;3.09;80.04
60974;BME280;46846;51.528;5.076;2023-02-14T02:11:16;102891.50;;;3.09;79.73
60974;BME280;46846;51.528;5.076;2023-02-14T02:13:42;102891.50;;;3.09;79.49
60974;BME280;46846;51.528;5.076;2023-02-14T02:31:18;102882.44;;;2.99;79.48
60974;BME280;46846;51.528;5.076;2023-02-14T02:42:23;102867.50;;;2.96;79.42
60974;BME280;46846;51.528;5.076;2023-02-14T02:45:03;102867.38;;;2.93;79.30
60974;BME280;46846;51.528;5.076;2023-02-14T02:47:38;102869.13;;;2.93;79.99
60974;BME280;46846;51.528;5.076;2023-02-14T02:50:25;102862.06;;;2.92;79.50
60974;BME280;46846;51.528;5.076;2023-02-14T02:55:51;102865.47;;;2.87;79.39
60974;BME280;46846;51.528;5.076;2023-02-14T02:58:45;102867.16;;;2.85;79.33
60974;BME280;46846;51.528;5.076;2023-02-14T03:01:16;102861.91;;;2.85;79.56
60974;BME280;46846;51.528;5.076;2023-02-14T03:03:45;102865.47;;;2.87;78.92
60974;BME280;46846;51.528;5.076;2023-02-14T03:06:31;102874.19;;;2.86;79.57
60974;BME280;46846;51.528;5.076;2023-02-14T03:12:02;102870.59;;;2.83;79.40
60974;BME280;46846;51.528;5.076;2023-02-14T03:14:49;102867.97;;;2.84;78.98
60974;BME280;46846;51.528;5.076;2023-02-14T03:17:37;102872.22;;;2.79;79.37
60974;BME280;46846;51.528;5.076;2023-02-14T03:20:18;102872.16;;;2.78;79.41
60974;BME280;46846;51.528;5.076;2023-02-14T03:22:52;102865.19;;;2.78;79.13
60974;BME280;46846;51.528;5.076;2023-02-14T03:28:23;102872.94;;;2.73;79.16
60974;BME280;46846;51.528;5.076;2023-02-14T03:33:32;102870.38;;;2.77;78.74
60974;BME280;46846;51.528;5.076;2023-02-14T03:36:09;102871.13;;;2.72;79.14
60974;BME280;46846;51.528;5.076;2023-02-14T03:38:41;102875.50;;;2.72;79.14
60974;BME280;46846;51.528;5.076;2023-02-14T03:41:13;102870.97;;;2.68;78.62
60974;BME280;46846;51.528;5.076;2023-02-14T03:43:48;102876.25;;;2.68;79.14
60974;BME280;46846;51.528;5.076;2023-02-14T03:46:16;102876.22;;;2.66;78.97
60974;BME280;46846;51.528;5.076;2023-02-14T03:48:44;102877.09;;;2.67;79.04
60974;BME280;46846;51.528;5.076;2023-02-14T03:51:13;102884.00;;;2.63;79.23
60974;BME280;46846;51.528;5.076;2023-02-14T03:53:43;102870.84;;;2.63;79.29
60974;BME280;46846;51.528;5.076;2023-02-14T03:56:16;102869.97;;;2.63;79.30
60974;BME280;46846;51.528;5.076;2023-02-14T03:58:47;102875.13;;;2.59;78.91
60974;BME280;46846;51.528;5.076;2023-02-14T04:01:21;102876.81;;;2.57;78.88
60974;BME280;46846;51.528;5.076;2023-02-14T04:03:49;102876.88;;;2.59;79.03
60974;BME280;46846;51.528;5.076;2023-02-14T04:06:17;102877.66;;;2.56;79.14
60974;BME280;46846;51.528;5.076;2023-02-14T04:08:43;102872.28;;;2.53;79.01
60974;BME280;46846;51.528;5.076;2023-02-14T04:11:08;102879.28;;;2.53;79.16
60974;BME280;46846;51.528;5.076;2023-02-14T04:13:35;102876.53;;;2.50;79.29
60974;BME280;46846;51.528;5.076;2023-02-14T04:16:01;102873.03;;;2.49;79.40
60974;BME280;46846;51.528;5.076;2023-02-14T04:18:27;102873.84;;;2.46;79.01
60974;BME280;46846;51.528;5.076;2023-02-14T04:21:11;102873.13;;;2.52;78.69
60974;BME280;46846;51.528;5.076;2023-02-14T04:23:36;102881.78;;;2.48;78.70
60974;BME280;46846;51.528;5.076;2023-02-14T04:26:02;102875.69;;;2.51;78.84
60974;BME280;46846;51.528;5.076;2023-02-14T04:28:28;102879.09;;;2.46;79.06
60974;BME280;46846;51.528;5.076;2023-02-14T04:30:53;102874.75;;;2.47;78.37
60974;BME280;46846;51.528;5.076;2023-02-14T04:33:19;102867.66;;;2.44;79.08
60974;BME280;46846;51.528;5.076;2023-02-14T04:35:44;102870.16;;;2.41;78.71
60974;BME280;46846;51.528;5.076;2023-02-14T04:38:09;102877.16;;;2.41;78.71
60974;BME280;46846;51.528;5.076;2023-02-14T04:40:35;102876.25;;;2.40;78.42
60974;BME280;46846;51.528;5.076;2023-02-14T04:43:00;102870.16;;;2.41;78.83
60974;BME280;46846;51.528;5.076;2023-02-14T04:45:26;102866.53;;;2.38;78.61
60974;BME280;46846;51.528;5.076;2023-02-14T04:47:51;102862.13;;;2.37;78.77
60974;BME280;46846;51.528;5.076;2023-02-14T04:50:17;102868.31;;;2.39;78.41
60974;BME280;46846;51.528;5.076;2023-02-14T04:52:42;102868.31;;;2.39;79.05
60974;BME280;46846;51.528;5.076;2023-02-14T04:55:09;102864.88;;;2.40;78.69
60974;BME280;46846;51.528;5.076;2023-02-14T04:57:34;102861.28;;;2.38;78.38
60974;BME280;46846;51.528;5.076;2023-02-14T05:00:00;102862.03;;;2.34;78.64
60974;BME280;46846;51.528;5.076;2023-02-14T05:02:25;102860.25;;;2.32;78.46
60974;BME280;46846;51.528;5.076;2023-02-14T05:04:51;102859.34;;;2.32;78.37
60974;BME280;46846;51.528;5.076;2023-02-14T05:07:16;102857.66;;;2.34;78.52
60974;BME280;46846;51.528;5.076;2023-02-14T05:09:42;102852.38;;;2.32;78.47
60974;BME280;46846;51.528;5.076;2023-02-14T05:12:07;102857.63;;;2.32;78.48
60974;BME280;46846;51.528;5.076;2023-02-14T05:14:32;102856.72;;;2.32;78.28
60974;BME280;46846;51.528;5.076;2023-02-14T05:16:58;102854.88;;;2.29;78.51
60974;BME280;46846;51.528;5.076;2023-02-14T05:19:23;102857.50;;;2.29;78.26
60974;BME280;46846;51.528;5.076;2023-02-14T05:21:49;102856.63;;;2.29;78.28
60974;BME280;46846;51.528;5.076;2023-02-14T05:24:15;102853.16;;;2.30;78.55
60974;BME280;46846;51.528;5.076;2023-02-14T05:26:40;102853.09;;;2.28;78.33
60974;BME280;46846;51.528;5.076;2023-02-14T05:29:06;102852.19;;;2.28;78.50
60974;BME280;46846;51.528;5.076;2023-02-14T05:31:31;102851.22;;;2.24;78.33
60974;BME280;46846;51.528;5.076;2023-02-14T05:33:56;102849.44;;;2.23;78.33
60974;BME280;46846;51.528;5.076;2023-02-14T05:36:22;102855.59;;;2.24;78.24
60974;BME280;46846;51.528;5.076;2023-02-14T05:38:47;102849.44;;;2.23;78.21
60974;BME280;46846;51.528;5.076;2023-02-14T05:41:13;102849.44;;;2.23;78.26
60974;BME280;46846;51.528;5.076;2023-02-14T05:43:38;102854.59;;;2.20;78.31
60974;BME280;46846;51.528;5.076;2023-02-14T05:46:03;102849.28;;;2.18;78.55
60974;BME280;46846;51.528;5.076;2023-02-14T05:48:29;102846.66;;;2.18;78.48
60974;BME280;46846;51.528;5.076;2023-02-14T05:50:54;102851.84;;;2.17;78.57
60974;BME280;46846;51.528;5.076;2023-02-14T05:53:20;102849.22;;;2.17;78.02
60974;BME280;46846;51.528;5.076;2023-02-14T05:55:46;102847.41;;;2.14;78.58
60974;BME280;46846;51.528;5.076;2023-02-14T05:58:11;102853.66;;;2.18;78.57
60974;BME280;46846;51.528;5.076;2023-02-14T06:00:37;102850.97;;;2.16;77.78
60974;BME280;46846;51.528;5.076;2023-02-14T06:03:03;102850.91;;;2.15;78.22
60974;BME280;46846;51.528;5.076;2023-02-14T06:05:28;102859.63;;;2.14;78.27
60974;BME280;46846;51.528;5.076;2023-02-14T06:07:54;102847.25;;;2.10;78.32
60974;BME280;46846;51.528;5.076;2023-02-14T06:10:21;102859.56;;;2.12;78.20
60974;BME280;46846;51.528;5.076;2023-02-14T06:12:48;102853.44;;;2.12;77.89
60974;BME280;46846;51.528;5.076;2023-02-14T06:15:13;102849.91;;;2.11;78.06
60974;BME280;46846;51.528;5.076;2023-02-14T06:17:39;102861.28;;;2.10;77.98
60974;BME280;46846;51.528;5.076;2023-02-14T06:20:05;102858.59;;;2.09;77.96
60974;BME280;46846;51.528;5.076;2023-02-14T06:22:31;102852.38;;;2.07;78.27
60974;BME280;46846;51.528;5.076;2023-02-14T06:24:56;102860.22;;;2.05;77.97
60974;BME280;46846;51.528;5.076;2023-02-14T06:27:21;102858.41;;;2.02;78.32
60974;BME280;46846;51.528;5.076;2023-02-14T06:29:47;102859.34;;;2.04;78.29
60974;BME280;46846;51.528;5.076;2023-02-14T06:32:12;102861.13;;;2.05;78.05
60974;BME280;46846;51.528;5.076;2023-02-14T06:34:38;102869.91;;;2.06;77.94
60974;BME280;46846;51.528;5.076;2023-02-14T06:37:05;102866.31;;;2.04;78.06
60974;BME280;46846;51.528;5.076;2023-02-14T06:39:31;102868.91;;;2.02;77.96
60974;BME280;46846;51.528;5.076;2023-02-14T06:41:56;102861.03;;;2.02;77.61
60974;BME280;46846;51.528;5.076;2023-02-14T06:44:21;102872.34;;;2.01;78.27
60974;BME280;46846;51.528;5.076;2023-02-14T06:46:47;102860.91;;;1.99;77.91
60974;BME280;46846;51.528;5.076;2023-02-14T06:49:12;102859.19;;;2.00;77.88
60974;BME280;46846;51.528;5.076;2023-02-14T06:51:38;102860.03;;;1.99;77.83
60974;BME280;46846;51.528;5.076;2023-02-14T06:54:03;102860.06;;;2.00;77.52
60974;BME280;46846;51.528;5.076;2023-02-14T06:56:28;102858.34;;;2.01;77.84
60974;BME280;46846;51.528;5.076;2023-02-14T06:58:54;102856.50;;;1.98;77.60
60974;BME280;46846;51.528;5.076;2023-02-14T07:01:19;102859.03;;;1.95;77.52
60974;BME280;46846;51.528;5.076;2023-02-14T07:03:44;102858.19;;;1.96;77.43
60974;BME280;46846;51.528;5.076;2023-02-14T07:06:10;102859.81;;;1.93;77.48
60974;BME280;46846;51.528;5.076;2023-02-14T07:08:35;102861.47;;;1.90;77.84
60974;BME280;46846;51.528;5.076;2023-02-14T07:11:01;102864.06;;;1.89;77.61
60974;BME280;46846;51.528;5.076;2023-02-14T07:13:26;102861.47;;;1.90;77.71
60974;BME280;46846;51.528;5.076;2023-02-14T07:15:52;102865.91;;;1.91;77.59
60974;BME280;46846;51.528;5.076;2023-02-14T07:18:17;102857.13;;;1.91;77.73
60974;BME280;46846;51.528;5.076;2023-02-14T07:20:42;102855.34;;;1.90;77.61
60974;BME280;46846;51.528;5.076;2023-02-14T07:23:09;102865.84;;;1.90;77.86
60974;BME280;46846;51.528;5.076;2023-02-14T07:25:35;102862.22;;;1.86;77.75
60974;BME280;46846;51.528;5.076;2023-02-14T07:28:00;102860.38;;;1.84;77.44
60974;BME280;46846;51.528;5.076;2023-02-14T07:30:26;102857.50;;;1.76;77.19
60974;BME280;46846;51.528;5.076;2023-02-14T07:32:52;102858.44;;;1.78;77.25
60974;BME280;46846;51.528;5.076;2023-02-14T07:35:17;102861.09;;;1.80;77.51
60974;BME280;46846;51.528;5.076;2023-02-14T07:37:43;102861.16;;;1.81;77.41
60974;BME280;46846;51.528;5.076;2023-02-14T07:40:08;102866.41;;;1.81;77.48
60974;BME280;46846;51.528;5.076;2023-02-14T07:42:34;102861.22;;;1.83;77.57
60974;BME280;46846;51.528;5.076;2023-02-14T07:44:59;102863.00;;;1.84;77.47
60974;BME280;46846;51.528;5.076;2023-02-14T07:47:25;102857.69;;;1.82;77.61
60974;BME280;46846;51.528;5.076;2023-02-14T07:49:50;102859.53;;;1.85;77.32
60974;BME280;46846;51.528;5.076;2023-02-14T07:52:16;102859.47;;;1.83;77.30
60974;BME280;46846;51.528;5.076;2023-02-14T07:54:41;102865.56;;;1.82;77.64
60974;BME280;46846;51.528;5.076;2023-02-14T07:57:06;102863.91;;;1.84;77.42
60974;BME280;46846;51.528;5.076;2023-02-14T07:59:32;102862.09;;;1.83;77.77
60974;BME280;46846;51.528;5.076;2023-02-14T08:01:57;102864.78;;;1.85;77.55
60974;BME280;46846;51.528;5.076;2023-02-14T08:04:22;102870.97;;;1.87;77.36
60974;BME280;46846;51.528;5.076;2023-02-14T08:06:54;102868.34;;;1.87;77.30
60974;BME280;46846;51.528;5.076;2023-02-14T08:09:20;102866.56;;;1.86;77.53
60974;BME280;46846;51.528;5.076;2023-02-14T08:11:52;102867.41;;;1.85;77.60
60974;BME280;46846;51.528;5.076;2023-02-14T08:14:36;102870.09;;;1.86;77.41
60974;BME280;46846;51.528;5.076;2023-02-14T08:17:02;102865.69;;;1.85;77.80
60974;BME280;46846;51.528;5.076;2023-02-14T08:19:28;102870.09;;;1.86;77.39
60974;BME280;46846;51.528;5.076;2023-02-14T08:21:54;102871.88;;;1.87;77.32
60974;BME280;46846;51.528;5.076;2023-02-14T08:24:19;102872.78;;;1.88;77.31
60974;BME280;46846;51.528;5.076;2023-02-14T08:26:44;102875.50;;;1.91;77.38
60974;BME280;46846;51.528;5.076;2023-02-14T08:29:10;102876.41;;;1.91;77.17
60974;BME280;46846;51.528;5.076;2023-02-14T08:31:35;102878.19;;;1.93;77.15
60974;BME280;46846;51.528;5.076;2023-02-14T08:34:02;102868.53;;;1.91;77.40
60974;BME280;46846;51.528;5.076;2023-02-14T08:36:28;102869.47;;;1.94;77.17
60974;BME280;46846;51.528;5.076;2023-02-14T08:38:53;102866.91;;;1.95;77.24
60974;BME280;46846;51.528;5.076;2023-02-14T08:41:19;102870.47;;;1.97;77.45
60974;BME280;46846;51.528;5.076;2023-02-14T08:43:45;102869.63;;;1.98;77.44
60974;BME280;46846;51.528;5.076;2023-02-14T08:46:11;102861.81;;;2.00;77.21
60974;BME280;46846;51.528;5.076;2023-02-14T08:48:37;102863.59;;;2.01;76.73
60974;BME280;46846;51.528;5.076;2023-02-14T08:51:08;102856.66;;;2.03;77.20
60974;BME280;46846;51.528;5.076;2023-02-14T08:53:33;102861.13;;;2.05;77.13
60974;BME280;46846;51.528;5.076;2023-02-14T08:56:11;102859.44;;;2.08;77.28
60974;BME280;46846;51.528;5.076;2023-02-14T08:58:37;102863.03;;;2.10;77.12
60974;BME280;46846;51.528;5.076;2023-02-14T09:01:12;102864.81;;;2.12;77.34
60974;BME280;46846;51.528;5.076;2023-02-14T09:03:38;102861.41;;;2.15;76.96
60974;BME280;46846;51.528;5.076;2023-02-14T09:06:09;102859.63;;;2.14;77.08
60974;BME280;46846;51.528;5.076;2023-02-14T09:08:35;102858.84;;;2.16;76.82
60974;BME280;46846;51.528;5.076;2023-02-14T09:11:13;102860.56;;;2.16;76.99
60974;BME280;46846;51.528;5.076;2023-02-14T09:13:41;102848.34;;;2.16;77.10
60974;BME280;46846;51.528;5.076;2023-02-14T09:16:08;102855.38;;;2.17;77.26
60974;BME280;46846;51.528;5.076;2023-02-14T09:18:34;102858.84;;;2.16;77.27
60974;BME280;46846;51.528;5.076;2023-02-14T09:21:00;102861.53;;;2.18;77.42
60974;BME280;46846;51.528;5.076;2023-02-14T09:23:26;102857.84;;;2.13;77.79
60974;BME280;46846;51.528;5.076;2023-02-14T09:26:02;102857.09;;;2.17;77.93
60974;BME280;46846;51.528;5.076;2023-02-14T09:28:28;102849.19;;;2.15;78.07
60974;BME280;46846;51.528;5.076;2023-02-14T09:30:55;102853.59;;;2.16;78.69
60974;BME280;46846;51.528;5.076;2023-02-14T09:33:20;102850.91;;;2.15;79.44
60974;BME280;46846;51.528;5.076;2023-02-14T09:35:46;102854.47;;;2.17;79.62
60974;BME280;46846;51.528;5.076;2023-02-14T09:38:11;102851.81;;;2.15;80.00
60974;BME280;46846;51.528;5.076;2023-02-14T09:40:44;102850.91;;;2.15;80.42
60974;BME280;46846;51.528;5.076;2023-02-14T09:43:22;102843.03;;;2.15;80.90
60974;BME280;46846;51.528;5.076;2023-02-14T09:45:55;102840.41;;;2.15;81.66
60974;BME280;46846;51.528;5.076;2023-02-14T09:48:36;102844.81;;;2.16;82.18
60974;BME280;46846;51.528;5.076;2023-02-14T09:51:06;102840.53;;;2.18;82.63
60974;BME280;46846;51.528;5.076;2023-02-14T09:53:44;102847.56;;;2.19;83.14
60974;BME280;46846;51.528;5.076;2023-02-14T09:58:55;102843.25;;;2.21;82.66
60974;BME280;46846;51.528;5.076;2023-02-14T10:01:46;102833.59;;;2.20;82.87
60974;BME280;46846;51.528;5.076;2023-02-14T10:04:37;102832.81;;;2.24;83.14
60974;BME280;46846;51.528;5.076;2023-02-14T10:12:33;102827.69;;;2.27;83.55
60974;BME280;46846;51.528;5.076;2023-02-14T10:15:09;102825.06;;;2.27;83.71
60974;BME280;46846;51.528;5.076;2023-02-14T10:17:43;102829.47;;;2.28;84.03
60974;BME280;46846;51.528;5.076;2023-02-14T10:25:47;102826.25;;;2.37;84.86
60974;BME280;46846;51.528;5.076;2023-02-14T10:28:16;102824.56;;;2.39;84.88
60974;BME280;46846;51.528;5.076;2023-02-14T10:31:02;102822.00;;;2.41;84.98
60974;BME280;46846;51.528;5.076;2023-02-14T10:33:31;102816.81;;;2.44;85.26
60974;BME280;46846;51.528;5.076;2023-02-14T10:36:03;102814.25;;;2.45;85.76
60974;BME280;46846;51.528;5.076;2023-02-14T10:38:48;102816.09;;;2.48;86.08
60974;BME280;46846;51.528;5.076;2023-02-14T10:41:40;102818.66;;;2.46;85.86
60974;BME280;46846;51.528;5.076;2023-02-14T10:44:24;102816.75;;;2.42;84.97
60974;BME280;46846;51.528;5.076;2023-02-14T10:55:21;102799.53;;;2.52;86.16
60974;BME280;46846;51.528;5.076;2023-02-14T10:57:53;102800.47;;;2.54;86.47
60974;BME280;46846;51.528;5.076;2023-02-14T11:00:35;102797.81;;;2.53;86.03
60974;BME280;46846;51.528;5.076;2023-02-14T11:03:06;102794.44;;;2.57;86.04
60974;BME280;46846;51.528;5.076;2023-02-14T11:05:39;102791.84;;;2.58;86.19
60974;BME280;46846;51.528;5.076;2023-02-14T11:10:47;102790.16;;;2.60;86.61
60974;BME280;46846;51.528;5.076;2023-02-14T11:13:45;102790.22;;;2.62;86.43
60974;BME280;46846;51.528;5.076;2023-02-14T11:16:18;102785.75;;;2.59;85.32
60974;BME280;46846;51.528;5.076;2023-02-14T11:21:44;102789.41;;;2.65;86.43
60974;BME280;46846;51.528;5.076;2023-02-14T11:24:35;102786.88;;;2.68;86.75
60974;BME280;46846;51.528;5.076;2023-02-14T11:32:11;102777.66;;;2.82;86.59
60974;BME280;46846;51.528;5.076;2023-02-14T11:34:40;102775.81;;;2.80;86.49
60974;BME280;46846;51.528;5.076;2023-02-14T11:37:41;102777.66;;;2.82;86.58
60974;BME280;46846;51.528;5.076;2023-02-14T11:40:24;102773.38;;;2.86;86.54
60974;BME280;46846;51.528;5.076;2023-02-14T11:42:50;102770.88;;;2.91;86.13
60974;BME280;46846;51.528;5.076;2023-02-14T11:45:34;102762.91;;;2.87;86.60
60974;BME280;46846;51.528;5.076;2023-02-14T11:48:27;102757.59;;;2.86;86.17
60974;BME280;46846;51.528;5.076;2023-02-14T11:51:05;102759.25;;;2.82;85.83
60974;BME280;46846;51.528;5.076;2023-02-14T11:53:52;102756.88;;;2.92;86.39
60974;BME280;46846;51.528;5.076;2023-02-14T11:56:21;102744.81;;;2.98;86.72
60974;BME280;46846;51.528;5.076;2023-02-14T11:58:53;102739.44;;;2.94;86.30
60974;BME280;46846;51.528;5.076;2023-02-14T12:01:30;102738.69;;;2.99;86.26
60974;BME280;46846;51.528;5.076;2023-02-14T12:04:03;102725.59;;;3.01;85.61
60974;BME280;46846;51.528;5.076;2023-02-14T12:06:31;102724.63;;;2.97;85.82
60974;BME280;46846;51.528;5.076;2023-02-14T12:12:17;102723.72;;;2.97;85.42
60974;BME280;46846;51.528;5.076;2023-02-14T12:14:42;102725.59;;;3.01;85.75
60974;BME280;46846;51.528;5.076;2023-02-14T12:17:17;102717.47;;;2.93;85.04
60974;BME280;46846;51.528;5.076;2023-02-14T12:20:06;102715.78;;;2.95;85.38
60974;BME280;46846;51.528;5.076;2023-02-14T12:22:52;102709.72;;;2.98;85.84
60974;BME280;46846;51.528;5.076;2023-02-14T12:25:25;102706.22;;;2.97;85.59
60974;BME280;46846;51.528;5.076;2023-02-14T12:28:04;102702.69;;;2.97;86.23
60974;BME280;46846;51.528;5.076;2023-02-14T12:30:34;102693.94;;;2.98;86.08
60974;BME280;46846;51.528;5.076;2023-02-14T12:32:59;102684.09;;;2.91;85.15
60974;BME280;46846;51.528;5.076;2023-02-14T12:44:06;102668.59;;;3.00;84.31
60974;BME280;46846;51.528;5.076;2023-02-14T12:46:58;102667.53;;;2.93;85.55
60974;BME280;46846;51.528;5.076;2023-02-14T12:57:51;102655.06;;;3.20;85.67
60974;BME280;46846;51.528;5.076;2023-02-14T13:02:47;102650.84;;;3.26;85.56
60974;BME280;46846;51.528;5.076;2023-02-14T13:05:44;102642.97;;;3.28;85.36
60974;BME280;46846;51.528;5.076;2023-02-14T13:10:54;102646.63;;;3.33;85.12
60974;BME280;46846;51.528;5.076;2023-02-14T13:13:32;102642.34;;;3.37;84.84
60974;BME280;46846;51.528;5.076;2023-02-14T13:16:16;102638.47;;;3.59;85.28
60974;BME280;46846;51.528;5.076;2023-02-14T13:18:52;102635.13;;;3.65;83.84
60974;BME280;46846;51.528;5.076;2023-02-14T13:21:24;102634.56;;;3.80;83.82
60974;BME280;46846;51.528;5.076;2023-02-14T13:23:54;102632.16;;;3.89;82.70
60974;BME280;46846;51.528;5.076;2023-02-14T13:26:28;102625.94;;;3.87;82.79
60974;BME280;46846;51.528;5.076;2023-02-14T13:29:00;102621.78;;;3.97;82.82
60974;BME280;46846;51.528;5.076;2023-02-14T13:31:26;102626.22;;;4.00;82.83
60974;BME280;46846;51.528;5.076;2023-02-14T13:34:02;102625.31;;;3.99;82.69
60974;BME280;46846;51.528;5.076;2023-02-14T13:36:31;102625.03;;;3.85;82.71
60974;BME280;46846;51.528;5.076;2023-02-14T13:38:58;102624.13;;;3.83;82.82
60974;BME280;46846;51.528;5.076;2023-02-14T13:41:25;102613.69;;;3.88;83.39
60974;BME280;46846;51.528;5.076;2023-02-14T13:44:01;102614.63;;;3.91;83.21
60974;BME280;46846;51.528;5.076;2023-02-14T13:49:23;102608.56;;;3.95;83.16
60974;BME280;46846;51.528;5.076;2023-02-14T13:51:48;102609.50;;;3.97;82.93
60974;BME280;46846;51.528;5.076;2023-02-14T13:57:02;102602.53;;;4.00;82.79
60974;BME280;46846;51.528;5.076;2023-02-14T14:02:47;102603.44;;;4.02;83.06
60974;BME280;46846;51.528;5.076;2023-02-14T14:10:50;102584.13;;;4.03;82.90
60974;BME280;46846;51.528;5.076;2023-02-14T14:21:35;102578.09;;;4.07;82.56
60974;BME280;46846;51.528;5.076;2023-02-14T14:27:00;102576.31;;;4.07;81.73
60974;BME280;46846;51.528;5.076;2023-02-14T14:29:33;102573.78;;;4.10;82.05
60974;BME280;46846;51.528;5.076;2023-02-14T14:32:23;102572.00;;;4.11;82.06
60974;BME280;46846;51.528;5.076;2023-02-14T14:34:56;102571.19;;;4.14;81.98
60974;BME280;46846;51.528;5.076;2023-02-14T14:37:44;102571.19;;;4.14;81.41
60974;BME280;46846;51.528;5.076;2023-02-14T14:43:11;102565.03;;;4.13;80.91
60974;BME280;46846;51.528;5.076;2023-02-14T14:45:37;102573.91;;;4.18;80.74
60974;BME280;46846;51.528;5.076;2023-02-14T14:48:13;102563.38;;;4.18;80.14
60974;BME280;46846;51.528;5.076;2023-02-14T14:50:43;102569.59;;;4.22;79.50
60974;BME280;46846;51.528;5.076;2023-02-14T14:53:27;102559.94;;;4.22;79.86
60974;BME280;46846;51.528;5.076;2023-02-14T14:55:55;102563.56;;;4.28;79.82
60974;BME280;46846;51.528;5.076;2023-02-14T14:58:38;102570.63;;;4.29;80.31
60974;BME280;46846;51.528;5.076;2023-02-14T15:01:07;102564.53;;;4.31;79.99
60974;BME280;46846;51.528;5.076;2023-02-14T15:03:34;102566.31;;;4.32;80.10
60974;BME280;46846;51.528;5.076;2023-02-14T15:06:23;102568.91;;;4.31;79.46
60974;BME280;46846;51.528;5.076;2023-02-14T15:08:49;102561.97;;;4.36;79.30
60974;BME280;46846;51.528;5.076;2023-02-14T15:11:17;102559.38;;;4.39;79.57
60974;BME280;46846;51.528;5.076;2023-02-14T15:14:12;102563.78;;;4.40;79.48
60974;BME280;46846;51.528;5.076;2023-02-14T15:16:44;102562.09;;;4.42;79.81
60974;BME280;46846;51.528;5.076;2023-02-14T15:22:04;102553.31;;;4.43;79.02
60974;BME280;46846;51.528;5.076;2023-02-14T15:24:30;102553.38;;;4.46;78.93
60974;BME280;46846;51.528;5.076;2023-02-14T15:27:00;102551.66;;;4.48;79.03